Time;durP1;ratioP1;P1;durP2;ratioP2;P2;SDS_P1;SDS_P2;PMS_P1;PMS_P2;Temp;Humidity;BMP_temperature;BMP_pressure;BME280_temperature;BME280_humidity;BME280_pressure;Samples;Min_cycle;Max_cycle;Signal;HPM_P1;HPM_P2
2022/01/23 00:00:18;;;;;;;4.65;4.25;;;4.00;99.90;;;;;;5037946;28;20216;-73
2022/01/23 00:02:49;;;;;;;5.28;4.78;;;4.00;99.90;;;;;;5037312;28;20267;-73
2022/01/23 00:05:16;;;;;;;5.10;4.70;;;4.00;99.90;;;;;;5036014;28;20200;-73
2022/01/23 00:07:43;;;;;;;4.25;3.85;;;4.00;99.90;;;;;;5021597;28;20576;-73
2022/01/23 00:10:10;;;;;;;5.53;5.05;;;3.90;99.90;;;;;;5041158;28;20179;-73
2022/01/23 00:12:45;;;;;;;4.15;3.78;;;3.90;99.90;;;;;;5032320;28;20581;-73
2022/01/23 00:17:55;;;;;;;6.18;5.57;;;3.80;99.90;;;;;;5037237;28;20214;-73
2022/01/23 00:20:21;;;;;;;5.20;4.75;;;3.80;99.90;;;;;;5043510;28;20204;-74
2022/01/23 00:22:51;;;;;;;4.80;4.40;;;3.80;99.90;;;;;;5033183;28;20187;-73
2022/01/23 00:30:47;;;;;;;6.18;5.60;;;3.90;99.90;;;;;;5025785;28;20183;-73
2022/01/23 00:33:14;;;;;;;6.10;5.50;;;3.80;99.90;;;;;;5040150;28;20215;-73
2022/01/23 00:35:42;;;;;;;5.40;4.93;;;3.80;99.90;;;;;;5031704;28;20218;-73
2022/01/23 00:38:09;;;;;;;6.43;5.65;;;3.80;99.90;;;;;;5045321;28;20203;-73
2022/01/23 00:40:38;;;;;;;6.50;5.90;;;3.80;99.90;;;;;;5034161;28;20169;-72
2022/01/23 00:43:13;;;;;;;6.38;5.78;;;3.90;99.90;;;;;;5030013;28;20177;-73
2022/01/23 00:45:49;;;;;;;6.45;5.85;;;3.80;99.90;;;;;;5018856;28;20693;-73
2022/01/23 00:48:17;;;;;;;6.78;6.07;;;3.80;99.90;;;;;;5046623;28;20179;-73
2022/01/23 00:50:44;;;;;;;7.60;6.90;;;3.80;99.90;;;;;;5033917;28;20194;-73
2022/01/23 00:53:13;;;;;;;8.13;6.73;;;3.80;99.90;;;;;;5031879;28;20233;-72
2022/01/23 00:55:41;;;;;;;7.38;6.68;;;3.80;99.90;;;;;;5026803;28;20605;-73
2022/01/23 00:58:07;;;;;;;8.10;7.30;;;3.70;99.90;;;;;;5026957;28;20184;-73
2022/01/23 01:00:33;;;;;;;8.23;7.18;;;3.70;99.90;;;;;;5034700;28;20279;-73
2022/01/23 01:02:59;;;;;;;9.70;8.25;;;3.70;99.90;;;;;;5037081;28;20238;-72
2022/01/23 01:05:26;;;;;;;8.87;8.00;;;3.70;99.90;;;;;;5032395;28;20208;-72
2022/01/23 01:07:56;;;;;;;9.07;8.18;;;3.60;99.90;;;;;;5023403;28;20666;-73
2022/01/23 01:10:28;;;;;;;9.50;8.07;;;3.70;99.90;;;;;;5037174;28;20589;-73
2022/01/23 01:12:58;;;;;;;9.27;8.23;;;3.70;99.90;;;;;;5033423;28;20269;-73
2022/01/23 01:31:32;;;;;;;8.70;7.73;;;3.60;99.90;;;;;;5028940;28;20188;-73
2022/01/23 01:34:06;;;;;;;9.30;8.30;;;3.60;99.90;;;;;;5029168;28;20215;-73
2022/01/23 01:36:44;;;;;;;10.82;9.32;;;3.70;99.90;;;;;;5035048;28;20259;-73
2022/01/23 01:39:10;;;;;;;10.50;8.82;;;3.70;99.90;;;;;;5033555;28;20172;-73
2022/01/23 01:41:39;;;;;;;10.60;8.68;;;3.60;99.90;;;;;;5029555;28;20206;-74
2022/01/23 01:44:05;;;;;;;10.80;9.52;;;3.60;99.90;;;;;;5043760;28;20196;-73
2022/01/23 01:46:31;;;;;;;11.65;9.18;;;3.60;99.90;;;;;;5031769;28;20190;-73
2022/01/23 01:48:57;;;;;;;11.27;8.77;;;3.70;99.90;;;;;;5040893;28;20176;-73
2022/01/23 01:51:24;;;;;;;11.70;9.00;;;3.70;99.90;;;;;;5026645;28;20566;-73
2022/01/23 01:53:54;;;;;;;10.15;8.80;;;3.70;99.90;;;;;;5030702;28;20204;-73
2022/01/23 01:56:20;;;;;;;10.32;9.30;;;3.70;99.90;;;;;;5025684;28;20239;-73
2022/01/23 02:14:31;;;;;;;6.53;5.93;;;3.60;99.90;;;;;;5041239;28;20843;-72
2022/01/23 02:52:30;;;;;;;6.67;5.97;;;3.50;99.90;;;;;;5030789;28;20263;-73
2022/01/23 02:54:59;;;;;;;6.77;6.17;;;3.50;99.90;;;;;;5026510;28;20213;-73
2022/01/23 02:57:53;;;;;;;6.40;5.80;;;3.40;99.90;;;;;;5033593;28;20507;-73
2022/01/23 03:00:21;;;;;;;6.80;6.20;;;3.40;99.90;;;;;;5029918;28;20192;-73
2022/01/23 03:02:50;;;;;;;6.67;6.07;;;3.50;99.90;;;;;;5037646;28;20187;-73
2022/01/23 03:10:40;;;;;;;7.60;6.80;;;3.40;99.90;;;;;;5031000;28;20196;-73
2022/01/23 03:29:22;;;;;;;7.70;6.60;;;3.50;99.90;;;;;;5023120;28;20176;-73
2022/01/23 03:34:16;;;;;;;8.53;7.60;;;3.40;99.90;;;;;;5027306;28;20572;-73
2022/01/23 03:36:42;;;;;;;8.80;7.47;;;3.30;99.90;;;;;;5036198;28;20183;-73
2022/01/23 03:39:08;;;;;;;8.50;7.40;;;3.30;99.90;;;;;;5029202;28;20842;-73
2022/01/23 03:41:36;;;;;;;8.80;7.40;;;3.20;99.90;;;;;;5027351;28;20611;-74
2022/01/23 03:44:05;;;;;;;10.30;9.17;;;3.30;99.90;;;;;;5033575;28;20213;-73
2022/01/23 03:51:44;;;;;;;9.77;8.73;;;3.30;99.90;;;;;;5036512;28;20203;-73
2022/01/23 03:54:10;;;;;;;9.87;8.87;;;3.20;99.90;;;;;;5027476;28;20594;-74
2022/01/23 03:56:36;;;;;;;10.23;8.47;;;3.20;99.90;;;;;;5032742;28;20226;-73
2022/01/23 03:59:01;;;;;;;11.60;9.27;;;3.30;99.90;;;;;;5030799;28;20189;-73
2022/01/23 04:01:27;;;;;;;10.43;8.37;;;3.30;99.90;;;;;;5037106;28;20188;-73
2022/01/23 04:03:57;;;;;;;11.15;9.70;;;3.20;99.90;;;;;;5030179;28;20715;-73
2022/01/23 04:06:23;;;;;;;9.27;8.33;;;3.40;99.90;;;;;;5038754;28;20176;-73
2022/01/23 04:08:49;;;;;;;10.90;9.13;;;3.40;99.90;;;;;;5028895;28;20199;-73
2022/01/23 04:11:15;;;;;;;10.63;9.10;;;3.40;99.90;;;;;;5034272;28;20237;-73
2022/01/23 04:13:54;;;;;;;10.77;9.53;;;3.50;99.90;;;;;;5038790;28;20622;-73
2022/01/23 05:00:09;;;;;;;8.60;7.50;;;3.50;99.90;;;;;;5026388;28;20247;-73
2022/01/23 05:05:07;;;;;;;11.97;7.93;;;3.50;99.90;;;;;;5029199;28;20208;-72
2022/01/23 05:07:33;;;;;;;9.63;7.80;;;3.50;99.90;;;;;;5035782;28;20179;-72
2022/01/23 05:09:59;;;;;;;8.70;7.90;;;3.40;99.90;;;;;;5030014;28;20642;-73
2022/01/23 05:12:29;;;;;;;7.73;6.83;;;3.30;99.90;;;;;;5024543;28;20177;-73
2022/01/23 05:14:56;;;;;;;8.80;7.83;;;3.20;99.90;;;;;;5026004;28;20366;-72
2022/01/23 05:17:22;;;;;;;10.07;6.83;;;3.10;99.90;;;;;;5029031;28;20165;-72
2022/01/23 05:19:48;;;;;;;9.60;7.53;;;3.00;99.90;;;;;;5040264;28;20556;-72
2022/01/23 05:22:26;;;;;;;7.70;6.57;;;3.10;99.90;;;;;;5032702;28;20652;-72
2022/01/23 05:27:22;;;;;;;8.73;7.30;;;3.10;99.90;;;;;;5028162;28;20203;-72
2022/01/23 05:29:48;;;;;;;8.67;6.87;;;3.00;99.90;;;;;;5027944;28;20169;-72
2022/01/23 05:32:14;;;;;;;7.30;6.00;;;3.00;99.90;;;;;;5033909;28;20543;-72
2022/01/23 05:34:42;;;;;;;8.07;7.27;;;3.10;99.90;;;;;;5029398;28;20220;-73
2022/01/23 05:37:08;;;;;;;6.80;6.10;;;3.20;99.90;;;;;;5027737;28;20176;-73
2022/01/23 05:39:34;;;;;;;7.57;6.40;;;3.30;99.90;;;;;;5031255;28;20184;-73
2022/01/23 05:42:06;;;;;;;5.37;4.87;;;3.40;99.90;;;;;;5022563;28;20178;-72
2022/01/23 05:44:37;;;;;;;7.30;6.53;;;3.40;99.90;;;;;;5025267;28;20201;-73
2022/01/23 05:47:04;;;;;;;7.47;6.07;;;3.30;99.90;;;;;;5032501;28;20231;-73
2022/01/23 05:49:29;;;;;;;8.07;6.83;;;3.30;99.90;;;;;;5023992;28;20207;-73
2022/01/23 05:51:55;;;;;;;7.60;6.73;;;3.30;99.90;;;;;;5027877;28;20279;-73
2022/01/23 05:54:21;;;;;;;7.67;6.57;;;3.20;99.90;;;;;;5028855;28;20203;-73
2022/01/23 05:56:47;;;;;;;5.70;5.10;;;3.20;99.90;;;;;;5028505;28;20187;-72
2022/01/23 05:59:12;;;;;;;7.77;6.87;;;3.10;99.90;;;;;;5025039;28;20180;-72
2022/01/23 06:01:38;;;;;;;8.63;7.40;;;3.10;99.90;;;;;;5015128;28;20216;-73
2022/01/23 06:04:04;;;;;;;8.53;7.03;;;3.10;99.90;;;;;;5034647;28;20196;-73
2022/01/23 06:06:30;;;;;;;7.43;6.70;;;3.10;99.90;;;;;;5027937;28;20181;-72
2022/01/23 06:08:56;;;;;;;9.27;7.17;;;3.20;99.90;;;;;;5021648;28;20176;-73
2022/01/23 06:11:21;;;;;;;7.53;6.83;;;3.10;99.90;;;;;;5016766;28;20704;-72
2022/01/23 06:13:47;;;;;;;8.10;7.30;;;3.10;99.90;;;;;;5018787;28;20224;-71
2022/01/23 06:16:13;;;;;;;7.37;6.23;;;3.00;99.90;;;;;;5028517;28;20647;-71
2022/01/23 06:18:40;;;;;;;7.30;5.73;;;3.10;99.90;;;;;;5026898;28;20255;-71
2022/01/23 06:21:07;;;;;;;7.23;6.30;;;3.00;99.90;;;;;;5027487;28;20181;-71
2022/01/23 06:23:33;;;;;;;8.30;7.50;;;3.10;99.90;;;;;;5033938;28;20253;-70
2022/01/23 06:25:59;;;;;;;8.73;6.73;;;3.10;99.90;;;;;;5031412;28;20269;-71
2022/01/23 06:28:27;;;;;;;7.97;7.07;;;3.00;99.90;;;;;;5020977;28;20274;-70
2022/01/23 06:30:53;;;;;;;7.77;6.90;;;3.00;99.90;;;;;;5022983;28;20189;-70
2022/01/23 06:33:18;;;;;;;8.80;7.87;;;3.00;99.90;;;;;;5032049;28;20196;-71
2022/01/23 06:35:44;;;;;;;8.00;7.20;;;3.00;99.90;;;;;;5020439;28;20197;-71
2022/01/23 06:38:10;;;;;;;7.47;6.60;;;3.00;99.90;;;;;;5022367;28;20185;-71
2022/01/23 06:40:35;;;;;;;9.07;7.90;;;3.20;99.90;;;;;;5022143;28;20185;-71
2022/01/23 06:43:01;;;;;;;7.53;6.83;;;3.20;99.90;;;;;;5016322;28;20181;-71
2022/01/23 06:45:26;;;;;;;7.97;7.00;;;3.10;99.90;;;;;;5020661;28;20683;-71
2022/01/23 06:47:52;;;;;;;6.67;5.87;;;3.10;99.90;;;;;;5018327;28;20191;-71
2022/01/23 06:50:18;;;;;;;8.20;7.17;;;3.20;99.90;;;;;;5026372;28;20204;-71
2022/01/23 06:52:43;;;;;;;8.33;7.33;;;3.20;99.90;;;;;;5021943;28;20196;-72
2022/01/23 06:55:09;;;;;;;9.43;8.07;;;3.10;99.90;;;;;;5019282;28;20201;-71
2022/01/23 06:57:35;;;;;;;8.90;8.00;;;3.10;99.90;;;;;;5020843;28;20188;-71
2022/01/23 07:00:01;;;;;;;10.17;7.60;;;3.10;99.90;;;;;;5026624;28;20219;-71
2022/01/23 07:02:26;;;;;;;9.10;7.60;;;3.10;99.90;;;;;;5026039;28;20189;-71
2022/01/23 07:04:53;;;;;;;8.60;7.70;;;3.00;99.90;;;;;;5019373;28;20204;-71
2022/01/23 07:07:19;;;;;;;10.07;8.10;;;3.10;99.90;;;;;;5017051;28;20172;-71
2022/01/23 07:09:44;;;;;;;9.47;7.90;;;3.10;99.90;;;;;;5028581;28;20582;-72
2022/01/23 07:12:10;;;;;;;9.17;7.73;;;3.10;99.90;;;;;;5032096;28;20189;-72
2022/01/23 07:14:36;;;;;;;8.27;6.93;;;3.20;99.90;;;;;;5028274;28;20580;-72
2022/01/23 07:17:02;;;;;;;8.10;7.30;;;3.20;99.90;;;;;;5034953;28;20195;-71
2022/01/23 07:19:27;;;;;;;7.77;6.83;;;3.40;99.90;;;;;;5023375;28;20224;-71
2022/01/23 07:21:53;;;;;;;8.53;7.53;;;3.40;99.90;;;;;;5021209;28;20205;-71
2022/01/23 07:24:19;;;;;;;7.73;6.93;;;3.50;99.90;;;;;;5026493;28;20291;-71
2022/01/23 07:26:45;;;;;;;8.48;7.25;;;3.60;99.90;;;;;;5023784;28;20184;-71
2022/01/23 07:29:11;;;;;;;7.97;6.70;;;3.60;99.90;;;;;;5021502;28;20675;-72
2022/01/23 07:34:05;;;;;;;7.65;6.93;;;3.70;99.90;;;;;;5029029;28;20295;-72
2022/01/23 07:36:31;;;;;;;8.75;7.50;;;3.80;99.90;;;;;;5028202;28;20216;-71
2022/01/23 07:38:57;;;;;;;8.23;6.75;;;3.70;99.90;;;;;;5039221;28;20216;-71
2022/01/23 07:41:23;;;;;;;9.20;7.25;;;3.70;99.90;;;;;;5026814;28;20187;-71
2022/01/23 07:43:49;;;;;;;8.85;7.80;;;3.90;99.90;;;;;;5031312;28;20275;-71
2022/01/23 07:46:16;;;;;;;7.70;6.65;;;3.90;99.90;;;;;;5029344;28;20314;-71
2022/01/23 07:48:41;;;;;;;7.97;7.18;;;3.90;99.90;;;;;;5035767;28;20181;-71
2022/01/23 07:51:07;;;;;;;8.60;7.22;;;3.90;99.90;;;;;;5026474;28;20540;-71
2022/01/23 07:53:33;;;;;;;8.52;7.72;;;4.00;99.90;;;;;;5035236;28;20240;-71
2022/01/23 07:55:59;;;;;;;7.95;6.85;;;4.10;99.90;;;;;;5034596;28;20197;-71
2022/01/23 07:58:24;;;;;;;7.70;6.88;;;4.10;99.90;;;;;;5036131;28;20173;-71
2022/01/23 08:00:50;;;;;;;7.03;6.32;;;4.10;99.90;;;;;;5027196;28;20192;-71
2022/01/23 08:03:15;;;;;;;8.50;7.50;;;4.20;99.90;;;;;;5046949;28;20188;-71
2022/01/23 08:05:43;;;;;;;8.18;7.32;;;4.30;99.90;;;;;;5039166;28;20208;-70
2022/01/23 08:08:09;;;;;;;8.52;7.15;;;4.30;99.90;;;;;;5026562;28;20177;-71
2022/01/23 08:10:35;;;;;;;8.07;6.82;;;4.20;99.90;;;;;;5042181;28;20185;-71
2022/01/23 08:13:03;;;;;;;7.15;6.38;;;4.30;99.90;;;;;;5026152;28;20197;-70
2022/01/23 08:15:29;;;;;;;8.98;7.32;;;4.50;99.90;;;;;;5037123;28;20219;-71
2022/01/23 08:18:02;;;;;;;8.13;7.20;;;4.60;99.90;;;;;;5028629;28;20246;-71
2022/01/23 08:20:29;;;;;;;8.70;7.80;;;4.60;99.90;;;;;;5031037;28;20643;-71
2022/01/23 08:22:55;;;;;;;9.00;7.93;;;4.50;99.90;;;;;;5031558;28;20203;-70
2022/01/23 08:25:21;;;;;;;8.82;7.93;;;4.60;99.90;;;;;;5027955;28;20207;-71
2022/01/23 08:27:46;;;;;;;8.68;7.57;;;4.60;99.90;;;;;;5024144;28;20607;-71
2022/01/23 08:30:13;;;;;;;7.25;6.43;;;4.60;99.90;;;;;;5021566;28;20195;-71
2022/01/23 08:32:39;;;;;;;10.40;8.43;;;4.70;99.90;;;;;;5020942;28;20252;-71
2022/01/23 08:35:05;;;;;;;8.77;7.30;;;4.90;99.90;;;;;;5024062;28;20577;-71
2022/01/23 08:37:31;;;;;;;9.07;7.65;;;5.00;99.90;;;;;;5024982;28;20178;-71
2022/01/23 08:39:57;;;;;;;9.85;7.72;;;5.10;99.90;;;;;;5021905;28;20182;-71
2022/01/23 08:42:23;;;;;;;8.70;7.40;;;5.10;99.90;;;;;;5022620;28;20179;-71
2022/01/23 08:44:50;;;;;;;9.20;7.75;;;5.10;99.90;;;;;;5028363;28;20216;-71
2022/01/23 08:47:17;;;;;;;9.63;8.07;;;5.00;99.90;;;;;;5032828;28;20189;-70
2022/01/23 08:49:47;;;;;;;9.82;7.85;;;5.00;99.90;;;;;;5022679;28;20235;-72
2022/01/23 08:52:18;;;;;;;9.80;8.23;;;5.10;99.90;;;;;;5025486;28;20185;-72
2022/01/23 08:54:46;;;;;;;9.30;7.78;;;5.30;99.90;;;;;;5020205;28;20240;-71
2022/01/23 08:57:12;;;;;;;9.57;8.18;;;5.30;99.90;;;;;;5026843;28;20177;-71
2022/01/23 08:59:40;;;;;;;11.02;8.65;;;5.30;99.90;;;;;;5020145;28;20247;-71
2022/01/23 09:02:07;;;;;;;13.75;8.85;;;5.30;99.90;;;;;;5023509;28;20181;-72
2022/01/23 09:04:33;;;;;;;9.05;7.90;;;5.30;99.90;;;;;;5024111;28;20198;-71
2022/01/23 09:06:58;;;;;;;10.85;8.60;;;5.40;99.90;;;;;;5021538;28;20207;-71
2022/01/23 09:09:29;;;;;;;8.85;7.93;;;5.30;99.90;;;;;;5024500;28;20636;-72
2022/01/23 09:14:20;;;;;;;8.13;6.82;;;5.20;99.90;;;;;;5028198;28;20498;-71
2022/01/23 09:16:50;;;;;;;8.45;7.55;;;5.30;99.90;;;;;;5032765;28;20628;-71
2022/01/23 09:19:19;;;;;;;7.63;6.60;;;5.20;99.90;;;;;;5028663;28;20189;-71
2022/01/23 09:21:49;;;;;;;9.48;7.55;;;5.10;99.90;;;;;;5022361;28;20549;-71
2022/01/23 09:24:17;;;;;;;8.23;6.75;;;5.10;99.90;;;;;;5023432;28;20250;-72
2022/01/23 09:26:45;;;;;;;7.10;6.40;;;5.10;99.90;;;;;;5027122;28;20260;-71
2022/01/23 09:29:15;;;;;;;6.68;6.00;;;5.10;99.90;;;;;;5017495;28;20260;-71
2022/01/23 09:31:50;;;;;;;7.28;6.57;;;5.20;99.90;;;;;;5020409;28;20604;-70
2022/01/23 09:34:36;;;;;;;6.47;5.82;;;5.20;99.90;;;;;;5028883;28;20263;-70
2022/01/23 09:37:09;;;;;;;5.68;5.10;;;5.20;99.90;;;;;;5025688;28;20327;-70
2022/01/23 09:39:36;;;;;;;7.18;6.43;;;5.20;99.90;;;;;;5024158;28;20212;-70
2022/01/23 09:42:25;;;;;;;6.40;5.78;;;5.20;99.90;;;;;;5021980;28;20181;-71
2022/01/23 09:44:56;;;;;;;6.20;5.60;;;5.30;99.90;;;;;;5018649;28;20692;-72
2022/01/23 09:47:22;;;;;;;5.63;5.10;;;5.30;99.90;;;;;;5023108;28;20188;-72
2022/01/23 09:49:50;;;;;;;8.07;5.40;;;5.50;99.90;;;;;;5020677;28;20199;-71
2022/01/23 09:52:18;;;;;;;6.18;5.57;;;5.50;99.90;;;;;;5017053;28;20185;-71
2022/01/23 09:54:55;;;;;;;5.38;4.88;;;5.40;99.90;;;;;;5014592;28;20546;-72
2022/01/23 09:57:24;;;;;;;6.53;5.93;;;5.40;99.90;;;;;;5017201;28;20627;-72
2022/01/23 09:59:54;;;;;;;6.03;5.45;;;5.40;99.90;;;;;;5020018;28;20192;-75
2022/01/23 10:02:20;;;;;;;7.30;6.38;;;5.60;99.90;;;;;;5018484;28;20186;-77
2022/01/23 10:04:45;;;;;;;5.57;5.03;;;5.50;99.90;;;;;;5011465;28;20201;-75
2022/01/23 10:07:12;;;;;;;5.13;4.63;;;5.50;99.90;;;;;;5023470;28;20576;-74
2022/01/23 10:09:38;;;;;;;6.85;5.45;;;5.50;99.90;;;;;;5024066;28;20188;-74
2022/01/23 10:12:05;;;;;;;6.70;5.90;;;5.50;99.90;;;;;;5027978;28;20192;-74
2022/01/23 10:14:31;;;;;;;6.25;5.63;;;5.70;99.90;;;;;;5022406;28;20217;-76
2022/01/23 10:16:57;;;;;;;5.20;4.70;;;5.80;99.90;;;;;;5019550;28;20177;-73
2022/01/23 10:19:23;;;;;;;5.18;4.68;;;5.90;99.90;;;;;;5020809;28;20196;-74
2022/01/23 10:21:49;;;;;;;4.78;3.97;;;5.90;99.90;;;;;;5025493;28;20180;-73
2022/01/23 10:24:15;;;;;;;4.47;4.07;;;6.00;99.90;;;;;;5024444;28;20835;-74
2022/01/23 10:26:53;;;;;;;3.80;3.50;;;6.20;99.90;;;;;;5018565;28;20263;-73
2022/01/23 10:29:29;;;;;;;4.13;3.75;;;6.50;99.90;;;;;;5021340;28;20458;-73
2022/01/23 10:32:18;;;;;;;4.38;3.92;;;6.80;99.90;;;;;;5022109;28;20230;-72
2022/01/23 10:34:55;;;;;;;3.67;3.47;;;7.00;99.90;;;;;;5018162;28;20770;-76
2022/01/23 10:37:39;;;;;;;4.00;3.70;;;7.20;99.90;;;;;;5020087;28;20176;-73
2022/01/23 10:40:22;;;;;;;3.05;2.85;;;7.40;99.90;;;;;;5018948;28;20212;-75
2022/01/23 10:48:43;;;;;;;3.00;2.80;;;7.80;99.90;;;;;;5016437;28;20693;-72
2022/01/23 10:51:22;;;;;;;3.83;3.53;;;7.60;99.90;;;;;;5020480;28;20807;-71
2022/01/23 10:54:09;;;;;;;3.80;3.50;;;7.50;99.90;;;;;;5018473;28;20247;-72
2022/01/23 10:56:57;;;;;;;3.03;2.78;;;7.80;99.90;;;;;;5026278;28;20177;-77
2022/01/23 10:59:24;;;;;;;4.40;4.00;;;7.90;99.90;;;;;;5035689;28;20667;-74
2022/01/23 11:02:05;;;;;;;2.90;2.70;;;8.10;99.90;;;;;;5017253;28;20650;-78
2022/01/23 11:04:48;;;;;;;3.75;3.42;;;8.30;99.90;;;;;;5027012;28;20212;-78
2022/01/23 11:07:14;;;;;;;3.35;3.10;;;8.30;99.90;;;;;;5038132;28;20176;-78
2022/01/23 11:09:41;;;;;;;3.80;3.50;;;8.80;99.90;;;;;;5023194;28;20182;-76
2022/01/23 11:12:23;;;;;;;3.80;3.50;;;8.70;99.90;;;;;;5021995;28;20201;-77
2022/01/23 11:17:57;;;;;;;3.80;3.50;;;8.90;99.90;;;;;;5039513;28;20222;-77
2022/01/23 11:20:37;;;;;;;4.88;4.47;;;8.80;99.90;;;;;;5030723;28;20201;-77
2022/01/23 11:23:16;;;;;;;4.22;3.92;;;8.70;99.90;;;;;;5041853;28;20230;-73
2022/01/23 11:25:56;;;;;;;4.90;4.50;;;8.30;99.90;;;;;;5035848;28;20266;-77
2022/01/23 11:28:32;;;;;;;5.40;5.00;;;7.90;99.90;;;;;;5041160;28;20226;-77
2022/01/23 11:30:59;;;;;;;5.25;4.72;;;7.30;99.90;;;;;;5038704;28;20181;-77
2022/01/23 11:33:25;;;;;;;6.05;5.47;;;7.00;99.90;;;;;;5044227;28;20261;-77
2022/01/23 11:35:51;;;;;;;5.88;5.28;;;6.70;99.90;;;;;;5035193;28;20189;-78
2022/01/23 11:38:20;;;;;;;5.28;4.78;;;6.50;99.90;;;;;;5043326;28;20176;-77
2022/01/23 11:54:41;;;;;;;5.35;4.53;;;5.70;99.90;;;;;;5019625;28;20278;-76
2022/01/23 11:57:40;;;;;;;5.88;4.97;;;5.60;99.90;;;;;;5027070;28;20178;-77
2022/01/23 12:00:11;;;;;;;6.07;5.47;;;5.40;99.90;;;;;;5034369;28;20201;-77
2022/01/23 12:02:40;;;;;;;6.45;4.10;;;5.30;99.90;;;;;;5034467;28;20169;-77
2022/01/23 12:05:12;;;;;;;4.50;4.10;;;5.20;99.90;;;;;;5025309;28;20675;-78
2022/01/23 12:07:40;;;;;;;4.55;4.15;;;5.10;99.90;;;;;;5017643;28;20195;-78
2022/01/23 12:10:28;;;;;;;4.63;4.22;;;5.20;99.90;;;;;;5023169;28;20180;-76
2022/01/23 12:18:48;;;;;;;3.65;3.35;;;5.60;99.90;;;;;;5015561;28;20200;-77
2022/01/23 12:21:31;;;;;;;4.18;3.80;;;5.60;99.90;;;;;;5030749;28;20169;-77
2022/01/23 12:23:58;;;;;;;4.85;4.38;;;5.70;99.90;;;;;;5027644;28;20216;-76
2022/01/23 12:26:24;;;;;;;4.70;4.30;;;5.90;99.90;;;;;;5027694;28;20257;-77
2022/01/23 12:28:50;;;;;;;4.85;4.45;;;5.90;99.90;;;;;;5027229;28;20726;-72
2022/01/23 12:31:22;;;;;;;4.63;4.22;;;5.90;99.90;;;;;;5022890;28;20189;-72
2022/01/23 12:33:50;;;;;;;5.53;5.03;;;5.80;99.90;;;;;;5023011;28;20216;-70
2022/01/23 12:36:26;;;;;;;5.35;4.85;;;5.90;99.90;;;;;;5024196;28;20176;-70
2022/01/23 12:38:54;;;;;;;5.60;5.10;;;5.70;99.90;;;;;;5026098;28;20189;-70
2022/01/23 12:41:30;;;;;;;5.70;5.20;;;5.70;99.90;;;;;;5022804;28;20189;-71
2022/01/23 12:44:06;;;;;;;6.07;5.47;;;5.70;99.90;;;;;;5024191;28;20212;-71
2022/01/23 12:46:40;;;;;;;5.93;5.43;;;5.60;99.90;;;;;;5027079;28;20184;-71
2022/01/23 12:49:48;;;;;;;6.68;5.95;;;5.50;99.90;;;;;;5024524;28;20238;-71
2022/01/23 12:52:21;;;;;;;4.80;4.28;;;5.50;99.90;;;;;;5025627;28;20185;-70
2022/01/23 12:54:47;;;;;;;5.70;4.55;;;5.50;99.90;;;;;;5022668;28;20225;-70
2022/01/23 12:57:19;;;;;;;5.55;4.97;;;5.40;99.90;;;;;;5026067;28;20735;-70
2022/01/23 12:59:58;;;;;;;4.57;4.10;;;5.30;99.90;;;;;;5023103;28;20669;-71
2022/01/23 13:02:28;;;;;;;4.25;3.85;;;5.10;99.90;;;;;;5028087;28;20211;-71
2022/01/23 13:04:55;;;;;;;3.90;3.55;;;5.10;99.90;;;;;;5029852;28;20208;-71
2022/01/23 13:13:06;;;;;;;2.78;2.58;;;5.10;99.90;;;;;;5039115;28;20693;-71
2022/01/23 13:32:32;;;;;;;2.08;1.98;;;5.60;99.90;;;;;;5024203;28;20912;-70
2022/01/23 13:35:08;;;;;;;1.70;1.60;;;5.80;99.90;;;;;;5024788;28;20591;-71
2022/01/23 13:37:36;;;;;;;2.05;1.88;;;5.90;99.90;;;;;;5023391;28;20187;-71
2022/01/23 13:40:24;;;;;;;2.65;2.45;;;6.00;99.90;;;;;;5019229;28;20554;-71
2022/01/23 14:02:16;;;;;;;3.10;2.90;;;6.40;99.90;;;;;;5018455;28;20227;-71
2022/01/23 14:05:02;;;;;;;2.95;2.63;;;6.10;99.90;;;;;;5025108;28;20204;-75
2022/01/23 14:07:28;;;;;;;3.53;3.22;;;5.90;99.90;;;;;;5024796;28;20440;-73
2022/01/23 14:09:56;;;;;;;3.30;3.00;;;5.90;99.90;;;;;;5034409;28;20188;-73
2022/01/23 14:12:23;;;;;;;3.20;2.90;;;5.80;99.90;;;;;;5021143;28;20228;-74
2022/01/23 14:14:56;;;;;;;4.07;3.78;;;5.70;99.90;;;;;;5019996;28;20212;-73
2022/01/23 14:17:24;;;;;;;4.22;3.83;;;5.40;99.90;;;;;;5040730;28;20196;-72
2022/01/23 14:20:08;;;;;;;4.00;3.70;;;5.40;99.90;;;;;;5024484;28;20438;-75
2022/01/23 14:22:36;;;;;;;4.20;3.90;;;5.40;99.90;;;;;;5028076;28;20839;-75
2022/01/23 14:25:09;;;;;;;3.42;3.13;;;5.30;99.90;;;;;;5030971;28;20442;-77
2022/01/23 14:27:36;;;;;;;3.37;3.10;;;5.20;99.90;;;;;;5028615;28;20437;-77
2022/01/23 14:30:06;;;;;;;3.22;3.00;;;5.10;99.90;;;;;;5025267;28;20231;-76
2022/01/23 14:32:44;;;;;;;2.30;2.10;;;5.00;99.90;;;;;;5026810;28;20180;-76
2022/01/23 14:35:25;;;;;;;2.22;2.13;;;5.00;99.90;;;;;;5038850;28;20684;-76
2022/01/23 14:37:52;;;;;;;2.35;2.25;;;5.00;99.90;;;;;;5024998;28;20196;-76
2022/01/23 14:40:26;;;;;;;2.75;2.10;;;5.10;99.90;;;;;;5035570;28;20173;-76
2022/01/23 14:43:08;;;;;;;2.53;2.40;;;5.10;99.90;;;;;;5026887;28;20180;-76
2022/01/23 14:45:45;;;;;;;2.53;2.33;;;5.10;99.90;;;;;;5023077;28;20291;-76
2022/01/23 14:48:13;;;;;;;2.72;2.53;;;5.30;99.90;;;;;;5027214;28;20203;-76
2022/01/23 14:50:42;;;;;;;8.50;2.80;;;5.30;99.90;;;;;;5047012;28;20200;-76
2022/01/23 14:53:17;;;;;;;3.08;2.80;;;5.30;99.90;;;;;;5035164;28;20199;-76
2022/01/23 14:55:55;;;;;;;2.60;2.42;;;5.30;99.90;;;;;;5029511;28;20245;-76
2022/01/23 14:58:23;;;;;;;2.60;2.42;;;5.30;99.90;;;;;;5042519;28;20258;-76
2022/01/23 15:00:53;;;;;;;3.25;3.05;;;5.30;99.90;;;;;;5029073;28;20802;-76
2022/01/23 15:03:20;;;;;;;2.60;2.40;;;5.20;99.90;;;;;;5034857;28;20200;-76
2022/01/23 15:05:47;;;;;;;2.85;2.70;;;5.10;99.90;;;;;;5030737;28;20296;-76
2022/01/23 15:08:13;;;;;;;2.92;2.60;;;5.00;99.90;;;;;;5031043;28;20194;-76
2022/01/23 15:10:42;;;;;;;3.17;2.08;;;5.00;99.90;;;;;;5027303;28;20694;-76
2022/01/23 15:13:12;;;;;;;3.00;2.75;;;4.80;99.90;;;;;;5029774;28;20205;-76
2022/01/23 15:15:38;;;;;;;2.40;2.20;;;4.70;99.90;;;;;;5035162;28;20288;-76
2022/01/23 15:18:04;;;;;;;2.35;2.25;;;4.70;99.90;;;;;;5032264;28;20327;-76
2022/01/23 15:20:33;;;;;;;2.67;2.47;;;4.80;99.90;;;;;;5027746;28;20250;-76
2022/01/23 15:23:04;;;;;;;2.83;2.63;;;4.80;99.90;;;;;;5034914;28;20180;-76
2022/01/23 15:25:29;;;;;;;2.63;2.47;;;4.80;99.90;;;;;;5028445;28;20199;-70
2022/01/23 15:27:55;;;;;;;2.88;2.67;;;4.70;99.90;;;;;;5030346;28;20774;-71
2022/01/23 15:30:23;;;;;;;3.30;2.47;;;4.70;99.90;;;;;;5034568;28;20254;-72
2022/01/23 15:32:50;;;;;;;3.30;2.67;;;4.70;99.90;;;;;;5027539;28;20173;-70
2022/01/23 15:35:17;;;;;;;2.80;2.60;;;4.80;99.90;;;;;;5048180;28;20189;-71
2022/01/23 15:37:43;;;;;;;4.07;2.85;;;4.80;99.90;;;;;;5046728;28;20186;-70
2022/01/23 15:40:10;;;;;;;2.65;2.53;;;4.80;99.90;;;;;;5038539;28;20558;-70
2022/01/23 15:42:41;;;;;;;3.70;3.38;;;4.90;99.90;;;;;;5039241;28;20203;-71
2022/01/23 15:45:08;;;;;;;4.35;3.78;;;4.90;99.90;;;;;;5032244;28;20235;-70
2022/01/23 15:47:34;;;;;;;4.75;4.25;;;4.90;99.90;;;;;;5022302;28;20205;-70
2022/01/23 15:50:00;;;;;;;5.50;5.00;;;4.90;99.90;;;;;;5035750;28;20211;-73
2022/01/23 15:52:26;;;;;;;5.80;5.30;;;5.00;99.90;;;;;;5025618;28;20180;-73
2022/01/23 15:54:52;;;;;;;5.15;4.65;;;5.00;99.90;;;;;;5027399;28;20256;-73
2022/01/23 15:57:17;;;;;;;6.18;4.50;;;5.00;99.90;;;;;;5024472;28;20654;-73
2022/01/23 15:59:43;;;;;;;5.35;4.85;;;5.00;99.90;;;;;;5021359;28;20768;-74
2022/01/23 16:02:09;;;;;;;4.93;4.53;;;5.00;99.90;;;;;;5026521;28;20197;-73
2022/01/23 16:04:38;;;;;;;5.30;4.80;;;5.00;99.90;;;;;;5020543;28;20240;-73
2022/01/23 16:07:06;;;;;;;6.30;5.70;;;5.10;99.90;;;;;;5022350;28;20427;-73
2022/01/23 16:09:32;;;;;;;15.50;5.13;;;5.10;99.90;;;;;;5020502;28;20180;-73
2022/01/23 16:11:57;;;;;;;5.47;4.80;;;5.00;99.90;;;;;;5023421;28;20185;-72
2022/01/23 16:14:23;;;;;;;5.32;4.82;;;4.90;99.90;;;;;;5020685;28;20219;-73
2022/01/23 16:16:50;;;;;;;6.63;5.30;;;4.90;99.90;;;;;;5029308;28;20277;-73
2022/01/23 16:19:16;;;;;;;6.60;5.03;;;4.80;99.90;;;;;;5022638;28;20197;-72
2022/01/23 16:21:44;;;;;;;5.53;4.95;;;4.70;99.90;;;;;;5022745;28;20315;-72
2022/01/23 16:24:10;;;;;;;6.07;5.47;;;4.70;99.90;;;;;;5025957;28;20197;-72
2022/01/23 16:26:36;;;;;;;7.43;5.93;;;4.70;99.90;;;;;;5022134;28;20185;-72
2022/01/23 16:29:04;;;;;;;7.18;6.13;;;4.70;99.90;;;;;;5019055;28;20188;-73
2022/01/23 16:31:30;;;;;;;7.30;5.70;;;4.80;99.90;;;;;;5040967;28;20667;-72
2022/01/23 16:33:55;;;;;;;6.47;5.82;;;4.90;99.90;;;;;;5027184;28;20223;-73
2022/01/23 16:36:21;;;;;;;6.13;5.53;;;4.90;99.90;;;;;;5021084;28;20185;-72
2022/01/23 16:38:47;;;;;;;6.57;5.93;;;4.90;99.90;;;;;;5026411;28;20176;-73
2022/01/23 16:41:13;;;;;;;7.28;6.15;;;4.90;99.90;;;;;;5035152;28;20189;-72
2022/01/23 16:43:40;;;;;;;6.60;5.95;;;4.90;99.90;;;;;;5028074;28;20209;-72
2022/01/23 16:46:06;;;;;;;7.00;6.30;;;5.00;99.90;;;;;;5031520;28;20180;-72
2022/01/23 16:48:32;;;;;;;8.75;6.47;;;5.00;99.90;;;;;;5035802;28;20225;-72
2022/01/23 16:51:00;;;;;;;8.13;6.95;;;5.00;99.90;;;;;;5040548;28;21414;-72
2022/01/23 16:53:26;;;;;;;7.63;5.82;;;4.80;99.90;;;;;;5023346;28;20535;-72